createdAt,value
2022-12-11T00:04:30.729Z,97.03
2022-12-11T00:09:34.193Z,81.28
2022-12-11T00:14:37.853Z,86.45
2022-12-11T00:19:42.977Z,96.95
2022-12-11T00:24:46.452Z,91.35
2022-12-11T00:29:49.973Z,98.25
2022-12-11T00:34:54.866Z,91.43
2022-12-11T00:39:58.378Z,91.10
2022-12-11T00:45:01.850Z,96.47
2022-12-11T00:50:08.142Z,90.47
2022-12-11T00:55:12.620Z,78.72
2022-12-11T01:00:16.689Z,86.43
2022-12-11T01:05:21.637Z,82.03
2022-12-11T01:10:25.409Z,86.43
2022-12-11T01:15:32.243Z,93.32
2022-12-11T01:20:39.668Z,79.97
2022-12-11T01:25:43.724Z,87.00
2022-12-11T01:30:47.321Z,80.18
2022-12-11T01:35:52.170Z,82.90
2022-12-11T01:40:55.656Z,76.28
2022-12-11T01:45:59.221Z,84.10
2022-12-11T01:51:06.783Z,96.32
2022-12-11T01:56:11.650Z,90.07
2022-12-11T02:01:21.730Z,100.70
2022-12-11T02:06:35.731Z,80.67
2022-12-11T02:11:48.699Z,100.78
2022-12-11T02:16:57.247Z,107.32
2022-12-11T02:22:08.269Z,103.00
2022-12-11T02:27:30.024Z,103.93
2022-12-11T02:32:39.613Z,119.75
2022-12-11T02:37:46.150Z,101.43
2022-12-11T02:42:50.880Z,104.50
2022-12-11T02:47:57.850Z,96.07
2022-12-11T02:53:05.150Z,129.45
2022-12-11T02:58:14.436Z,101.15
2022-12-11T03:03:19.411Z,118.32
2022-12-11T03:08:22.981Z,104.22
2022-12-11T03:13:26.521Z,98.78
2022-12-11T03:18:37.588Z,108.88
2022-12-11T03:23:48.875Z,97.47
2022-12-11T03:28:57.530Z,103.82
2022-12-11T03:34:05.516Z,97.68
2022-12-11T03:39:12.729Z,99.55
2022-12-11T03:44:18.187Z,103.35
2022-12-11T03:49:27.886Z,99.45
2022-12-11T03:54:32.280Z,103.03
2022-12-11T03:59:35.737Z,95.55
2022-12-11T04:04:42.413Z,93.50
2022-12-11T04:09:46.125Z,109.65
2022-12-11T04:15:04.719Z,106.82
2022-12-11T04:20:30.080Z,105.55
2022-12-11T04:25:33.636Z,107.43
2022-12-11T04:30:37.147Z,100.07
2022-12-11T04:35:41.989Z,101.90
2022-12-11T04:40:45.440Z,98.03
2022-12-11T04:45:48.939Z,94.93
2022-12-11T04:50:53.793Z,91.55
2022-12-11T04:55:57.708Z,92.70
2022-12-11T05:01:01.176Z,78.60
2022-12-11T05:06:06.570Z,97.57
2022-12-11T05:11:12.716Z,85.47
2022-12-11T05:16:18.002Z,97.20
2022-12-11T05:21:22.913Z,81.68
2022-12-11T05:26:26.552Z,83.72
2022-12-11T05:31:30.081Z,89.00
2022-12-11T05:36:35.373Z,85.90
2022-12-11T05:41:38.891Z,75.05
2022-12-11T05:46:42.386Z,82.55
2022-12-11T05:51:47.558Z,84.07
2022-12-11T05:56:51.985Z,79.43
2022-12-11T06:01:55.651Z,83.65
2022-12-11T06:07:00.687Z,80.10
2022-12-11T06:12:04.246Z,68.68
2022-12-11T06:17:08.011Z,68.50
2022-12-11T06:22:12.811Z,66.28
2022-12-11T06:27:16.439Z,56.60
2022-12-11T06:32:20.079Z,59.80
2022-12-11T06:37:25.201Z,54.55
2022-12-11T06:42:30.869Z,55.25
2022-12-11T06:47:34.479Z,54.90
2022-12-11T06:52:39.304Z,58.88
2022-12-11T06:57:43.090Z,50.25
2022-12-11T07:02:46.626Z,52.35
2022-12-11T07:07:53.969Z,55.58
2022-12-11T07:12:57.489Z,47.67
2022-12-11T07:18:01.240Z,43.63
2022-12-11T07:23:06.196Z,46.95
2022-12-11T07:28:13.655Z,47.67
2022-12-11T07:33:20.275Z,44.10
2022-12-11T07:38:25.090Z,42.40
2022-12-11T07:43:28.680Z,40.63
2022-12-11T07:48:32.173Z,39.00
2022-12-11T07:53:37.157Z,42.75
2022-12-11T07:58:40.658Z,43.55
2022-12-11T08:03:44.705Z,44.50
2022-12-11T08:08:49.777Z,38.65
2022-12-11T08:13:53.701Z,40.10
2022-12-11T08:18:57.171Z,41.17
2022-12-11T08:24:02.218Z,37.75
2022-12-11T08:29:06.063Z,46.50
2022-12-11T08:34:14.003Z,35.47
2022-12-11T08:39:19.726Z,38.70
2022-12-11T08:44:25.330Z,33.47
2022-12-11T08:49:34.233Z,35.80
2022-12-11T08:54:39.844Z,37.55
2022-12-11T08:59:43.703Z,37.05
2022-12-11T09:04:47.699Z,39.03
2022-12-11T09:09:52.756Z,39.65
2022-12-11T09:14:56.439Z,35.25
2022-12-11T09:20:00.387Z,38.25
2022-12-11T09:25:06.869Z,36.45
2022-12-11T09:30:11.277Z,35.28
2022-12-11T09:35:17.278Z,31.50
2022-12-11T09:40:22.269Z,33.45
2022-12-11T09:45:25.966Z,37.13
2022-12-11T09:50:33.504Z,36.42
2022-12-11T09:55:44.234Z,32.33
2022-12-11T10:00:51.465Z,34.85
2022-12-11T10:06:04.942Z,32.33
2022-12-11T10:11:28.326Z,36.60
2022-12-11T10:16:39.518Z,39.50
2022-12-11T10:21:46.175Z,31.63
2022-12-11T10:26:55.766Z,36.50
2022-12-11T10:31:59.940Z,32.65
2022-12-11T10:37:03.972Z,34.67
2022-12-11T10:42:18.659Z,32.65
2022-12-11T10:47:22.164Z,39.10
2022-12-11T10:52:28.562Z,37.65
2022-12-11T10:57:37.212Z,35.25
2022-12-11T11:02:42.585Z,38.55
2022-12-11T11:07:46.377Z,43.05
2022-12-11T11:13:01.268Z,43.97
2022-12-11T11:18:12.979Z,36.38
2022-12-11T11:23:19.962Z,38.10
2022-12-11T11:28:28.309Z,41.67
2022-12-11T11:33:34.256Z,45.58
2022-12-11T11:38:42.959Z,40.15
2022-12-11T11:43:52.031Z,39.25
2022-12-11T11:49:06.437Z,46.67
2022-12-11T11:54:21.885Z,37.90
2022-12-11T11:59:32.379Z,40.75
2022-12-11T12:04:36.920Z,40.30
2022-12-11T12:09:48.812Z,43.75
2022-12-11T12:15:09.673Z,42.65
2022-12-11T12:20:22.144Z,38.55
2022-12-11T12:25:33.093Z,34.90
2022-12-11T12:36:02.075Z,40.40
2022-12-11T12:41:19.876Z,42.03
2022-12-11T12:46:36.475Z,40.72
2022-12-11T12:51:41.195Z,38.28
2022-12-11T12:56:47.354Z,35.75
2022-12-11T13:01:57.190Z,39.75
2022-12-11T13:07:13.087Z,39.28
2022-12-11T13:12:17.512Z,38.92
2022-12-11T13:17:36.817Z,48.30
2022-12-11T13:22:55.215Z,39.90
2022-12-11T13:28:09.557Z,42.42
2022-12-11T13:33:19.926Z,40.95
2022-12-11T13:38:23.934Z,33.50
2022-12-11T13:43:31.198Z,38.28
2022-12-11T13:48:39.920Z,34.90
2022-12-11T13:53:43.836Z,37.53
2022-12-11T13:58:48.279Z,38.47
2022-12-11T14:03:56.638Z,39.50
2022-12-11T14:09:02.577Z,70.45
2022-12-11T14:14:08.505Z,39.35
2022-12-11T14:19:19.471Z,45.75
2022-12-11T14:29:30.359Z,42.83
2022-12-11T14:34:38.225Z,35.55
2022-12-11T14:39:47.345Z,40.05
2022-12-11T14:44:54.986Z,33.95
2022-12-11T14:50:06.215Z,35.60
2022-12-11T14:55:16.132Z,33.97
2022-12-11T15:00:24.328Z,39.78
2022-12-11T15:05:29.854Z,35.83
2022-12-11T15:10:37.711Z,37.42
2022-12-11T15:15:47.487Z,34.33
2022-12-11T15:20:55.080Z,36.27
2022-12-11T15:26:01.105Z,38.10
2022-12-11T15:31:07.290Z,32.63
2022-12-11T15:36:26.801Z,31.45
2022-12-11T15:41:33.666Z,36.58
2022-12-11T15:46:37.967Z,36.70
2022-12-11T15:51:43.615Z,32.58
2022-12-11T15:56:47.316Z,37.70
2022-12-11T16:01:51.061Z,34.58
2022-12-11T16:06:56.171Z,36.03
2022-12-11T16:12:00.137Z,37.05
2022-12-11T16:17:04.199Z,37.47
2022-12-11T16:22:10.042Z,30.45
2022-12-11T16:27:18.609Z,36.33
2022-12-11T16:32:25.289Z,35.28
2022-12-11T16:37:30.313Z,43.83
2022-12-11T16:42:38.842Z,39.55
2022-12-11T16:47:42.948Z,36.05
2022-12-11T16:52:47.926Z,39.55
2022-12-11T16:57:51.490Z,36.67
2022-12-11T17:02:55.516Z,41.42
2022-12-11T17:08:02.103Z,37.97
2022-12-11T17:13:06.020Z,37.80
2022-12-11T17:18:09.698Z,37.92
2022-12-11T17:23:14.812Z,33.83
2022-12-11T17:28:18.455Z,39.15
2022-12-11T17:33:22.397Z,35.22
2022-12-11T17:38:27.516Z,34.60
2022-12-11T17:43:34.681Z,36.70
2022-12-11T17:48:38.660Z,40.40
2022-12-11T17:53:43.709Z,34.80
2022-12-11T17:58:47.506Z,37.47
2022-12-11T18:03:51.278Z,36.88
2022-12-11T18:08:56.410Z,32.33
2022-12-11T18:14:00.411Z,35.10
2022-12-11T18:19:04.011Z,36.83
2022-12-11T18:24:10.901Z,29.17
2022-12-11T18:29:14.964Z,30.27
2022-12-11T18:34:18.772Z,32.40
2022-12-11T18:39:24.611Z,33.38
2022-12-11T18:44:28.311Z,32.75
2022-12-11T18:49:32.423Z,32.97
2022-12-11T18:54:37.952Z,35.72
2022-12-11T18:59:41.557Z,32.72
2022-12-11T19:04:45.266Z,37.28
2022-12-11T19:09:50.282Z,32.22
2022-12-11T19:14:54.597Z,32.92
2022-12-11T19:19:58.403Z,37.42
2022-12-11T19:25:03.775Z,39.60
2022-12-11T19:30:08.884Z,31.75
2022-12-11T19:35:14.239Z,35.78
2022-12-11T19:40:21.650Z,34.05
2022-12-11T19:45:25.506Z,30.67
2022-12-11T19:50:29.606Z,34.78
2022-12-11T19:55:34.627Z,37.60
2022-12-11T20:00:38.948Z,36.63
2022-12-11T20:05:42.755Z,33.03
2022-12-11T20:10:48.173Z,35.08
2022-12-11T20:15:52.250Z,35.30
2022-12-11T20:20:56.136Z,33.97
2022-12-11T20:26:06.895Z,32.35
2022-12-11T20:31:18.096Z,36.13
2022-12-11T20:36:24.355Z,34.00
2022-12-11T20:41:29.707Z,37.17
2022-12-11T20:46:33.458Z,33.08
2022-12-11T20:51:37.246Z,37.85
2022-12-11T20:56:42.246Z,39.42
2022-12-11T21:01:46.084Z,34.40
2022-12-11T21:06:55.495Z,30.98
2022-12-11T21:12:01.685Z,33.28
2022-12-11T21:17:05.312Z,33.22
2022-12-11T21:22:10.930Z,36.00
2022-12-11T21:27:15.932Z,36.08
2022-12-11T21:32:20.536Z,32.83
2022-12-11T21:37:24.515Z,32.10
2022-12-11T21:42:29.633Z,29.92
2022-12-11T21:47:33.224Z,49.50
2022-12-11T21:52:38.483Z,30.77
2022-12-11T21:57:43.904Z,36.33
2022-12-11T22:02:47.792Z,33.78
2022-12-11T22:07:51.721Z,34.33
2022-12-11T22:12:56.938Z,32.00
2022-12-11T22:18:00.601Z,46.33
2022-12-11T22:23:04.069Z,42.30
2022-12-11T22:28:09.295Z,35.88
2022-12-11T22:33:13.167Z,40.03
2022-12-11T22:38:16.646Z,36.58
2022-12-11T22:43:21.748Z,39.42
2022-12-11T22:48:27.425Z,31.40
2022-12-11T22:53:30.884Z,37.60
2022-12-11T22:58:36.037Z,37.30
2022-12-11T23:03:39.736Z,34.92
2022-12-11T23:08:43.940Z,33.67
2022-12-11T23:13:48.943Z,39.58
2022-12-11T23:18:52.559Z,33.85
2022-12-11T23:23:56.270Z,31.08
2022-12-11T23:29:01.390Z,34.30
2022-12-11T23:34:07.926Z,28.30
2022-12-11T23:39:11.748Z,35.60
2022-12-11T23:44:16.680Z,34.20
2022-12-11T23:49:20.176Z,35.42
2022-12-11T23:54:23.684Z,28.23
2022-12-11T23:59:28.491Z,30.70
